createdAt,value
2023-04-26T00:00:36.406Z,100429.00
2023-04-26T00:03:04.777Z,100432.00
2023-04-26T00:05:33.485Z,100443.00
2023-04-26T00:08:01.682Z,100439.00
2023-04-26T00:10:30.666Z,100448.00
2023-04-26T00:12:59.851Z,100449.00
2023-04-26T00:15:27.914Z,100445.00
2023-04-26T00:17:56.268Z,100446.00
2023-04-26T00:20:25.626Z,100437.00
2023-04-26T00:22:53.452Z,100447.00
2023-04-26T00:25:21.652Z,100446.00
2023-04-26T00:27:50.228Z,100436.00
2023-04-26T00:30:18.553Z,100449.00
2023-04-26T00:32:47.434Z,100445.00
2023-04-26T00:35:15.491Z,100451.00
2023-04-26T00:37:43.649Z,100445.00
2023-04-26T00:40:12.550Z,100443.00
2023-04-26T00:42:41.374Z,100439.00
2023-04-26T00:45:09.972Z,100442.00
2023-04-26T00:47:38.416Z,100438.00
2023-04-26T00:50:08.790Z,100439.00
2023-04-26T00:52:36.932Z,100435.00
2023-04-26T00:55:05.484Z,100438.00
2023-04-26T00:57:33.643Z,100432.00
2023-04-26T01:00:01.773Z,100439.00
2023-04-26T01:02:30.209Z,100436.00
2023-04-26T01:04:58.373Z,100450.00
2023-04-26T01:07:26.659Z,100444.00
2023-04-26T01:09:55.103Z,100445.00
2023-04-26T01:12:24.418Z,100446.00
2023-04-26T01:14:53.226Z,100439.00
2023-04-26T01:17:21.610Z,100442.00
2023-04-26T01:19:50.612Z,100455.00
2023-04-26T01:22:18.782Z,100451.00
2023-04-26T01:24:48.890Z,100452.00
2023-04-26T01:27:17.342Z,100453.00
2023-04-26T01:29:46.488Z,100460.00
2023-04-26T01:32:14.592Z,100454.00
2023-04-26T01:34:42.569Z,100450.00
2023-04-26T01:37:12.265Z,100457.00
2023-04-26T01:39:40.355Z,100460.00
2023-04-26T01:42:08.321Z,100457.00
2023-04-26T01:44:36.871Z,100458.00
2023-04-26T01:47:05.058Z,100459.00
2023-04-26T01:49:33.263Z,100467.00
2023-04-26T01:52:03.173Z,100459.00
2023-04-26T01:54:31.466Z,100461.00
2023-04-26T01:57:01.481Z,100457.00
2023-04-26T01:59:29.765Z,100462.00
2023-04-26T02:02:00.297Z,100460.00
2023-04-26T02:04:29.053Z,100464.00
2023-04-26T02:06:57.642Z,100468.00
2023-04-26T02:09:28.679Z,100459.00
2023-04-26T02:11:56.796Z,100463.00
2023-04-26T02:14:27.427Z,100459.00
2023-04-26T02:16:55.489Z,100457.00
2023-04-26T02:19:23.479Z,100462.00
2023-04-26T02:21:53.332Z,100460.00
2023-04-26T02:24:22.592Z,100461.00
2023-04-26T02:26:50.894Z,100463.00
2023-04-26T02:29:22.641Z,100463.00
2023-04-26T02:31:55.002Z,100461.00
2023-04-26T02:34:23.506Z,100462.00
2023-04-26T02:36:52.526Z,100459.00
2023-04-26T02:39:21.558Z,100459.00
2023-04-26T02:41:49.569Z,100458.00
2023-04-26T02:44:17.848Z,100457.00
2023-04-26T02:46:46.107Z,100460.00
2023-04-26T02:49:14.298Z,100457.00
2023-04-26T02:51:42.988Z,100455.00
2023-04-26T02:54:11.024Z,100460.00
2023-04-26T02:56:39.157Z,100456.00
2023-04-26T02:59:07.513Z,100455.00
2023-04-26T03:01:35.807Z,100463.00
2023-04-26T03:04:04.041Z,100465.00
2023-04-26T03:06:32.277Z,100471.00
2023-04-26T03:09:00.656Z,100468.00
2023-04-26T03:11:29.324Z,100469.00
2023-04-26T03:13:58.058Z,100471.00
2023-04-26T03:16:27.785Z,100461.00
2023-04-26T03:18:56.014Z,100463.00
2023-04-26T03:21:24.219Z,100468.00
2023-04-26T03:23:52.390Z,100455.00
2023-04-26T03:26:22.919Z,100458.00
2023-04-26T03:28:52.674Z,100463.00
2023-04-26T03:31:22.092Z,100452.00
2023-04-26T03:33:50.113Z,100454.00
2023-04-26T03:36:17.968Z,100464.00
2023-04-26T03:38:46.371Z,100466.00
2023-04-26T03:41:15.991Z,100470.00
2023-04-26T03:43:44.094Z,100470.00
2023-04-26T03:46:12.125Z,100471.00
2023-04-26T03:48:40.628Z,100454.00
2023-04-26T03:51:08.664Z,100464.00
2023-04-26T03:53:37.104Z,100468.00
2023-04-26T03:56:05.139Z,100467.00
2023-04-26T03:58:34.586Z,100473.00
2023-04-26T04:04:23.048Z,100471.00
2023-04-26T04:06:51.902Z,100470.00
2023-04-26T04:09:20.112Z,100467.00
2023-04-26T04:11:49.493Z,100478.00
2023-04-26T04:14:17.849Z,100478.00
2023-04-26T04:16:47.656Z,100476.00
2023-04-26T04:19:15.635Z,100477.00
2023-04-26T04:21:45.878Z,100482.00
2023-04-26T04:24:14.409Z,100476.00
2023-04-26T04:26:42.844Z,100477.00
2023-04-26T04:29:11.585Z,100478.00
2023-04-26T04:31:42.848Z,100477.00
2023-04-26T04:34:11.170Z,100479.00
2023-04-26T04:36:42.208Z,100476.00
2023-04-26T04:39:13.953Z,100475.00
2023-04-26T04:41:48.582Z,100481.00
2023-04-26T04:44:19.242Z,100478.00
2023-04-26T04:46:47.598Z,100482.00
2023-04-26T04:49:16.231Z,100487.00
2023-04-26T04:51:44.391Z,100484.00
2023-04-26T04:54:14.373Z,100487.00
2023-04-26T04:56:43.069Z,100485.00
2023-04-26T04:59:12.912Z,100490.00
2023-04-26T05:01:41.849Z,100497.00
2023-04-26T05:04:14.323Z,100500.00
2023-04-26T05:06:42.749Z,100495.00
2023-04-26T05:09:12.296Z,100499.00
2023-04-26T05:11:40.300Z,100505.00
2023-04-26T05:14:10.717Z,100511.00
2023-04-26T05:16:39.039Z,100505.00
2023-04-26T05:19:09.363Z,100504.00
2023-04-26T05:21:37.982Z,100507.00
2023-04-26T05:24:07.810Z,100504.00
2023-04-26T05:26:37.417Z,100503.00
2023-04-26T05:29:24.241Z,100504.00
2023-04-26T05:32:04.280Z,100516.00
2023-04-26T05:34:47.188Z,100515.00
2023-04-26T05:37:17.915Z,100512.00
2023-04-26T05:39:45.853Z,100520.00
2023-04-26T05:42:15.214Z,100519.00
2023-04-26T05:44:45.221Z,100524.00
2023-04-26T05:47:14.112Z,100521.00
2023-04-26T05:49:42.397Z,100523.00
2023-04-26T05:52:10.622Z,100512.00
2023-04-26T05:54:38.848Z,100525.00
2023-04-26T05:57:07.474Z,100526.00
2023-04-26T05:59:38.816Z,100534.00
2023-04-26T06:02:07.121Z,100534.00
2023-04-26T06:04:35.837Z,100533.00
2023-04-26T06:07:08.668Z,100534.00
2023-04-26T06:09:37.091Z,100539.00
2023-04-26T06:12:05.622Z,100539.00
2023-04-26T06:14:36.823Z,100529.00
2023-04-26T06:17:09.902Z,100534.00
2023-04-26T06:19:38.013Z,100539.00
2023-04-26T06:22:06.097Z,100531.00
2023-04-26T06:24:34.979Z,100535.00
2023-04-26T06:27:03.197Z,100537.00
2023-04-26T06:29:34.325Z,100546.00
2023-04-26T06:32:02.419Z,100544.00
2023-04-26T06:34:30.868Z,100538.00
2023-04-26T06:37:00.592Z,100535.00
2023-04-26T06:39:29.968Z,100541.00
2023-04-26T06:41:57.955Z,100535.00
2023-04-26T06:44:30.056Z,100535.00
2023-04-26T06:47:05.021Z,100534.00
2023-04-26T06:49:33.224Z,100538.00
2023-04-26T06:52:01.414Z,100542.00
2023-04-26T06:54:30.720Z,100547.00
2023-04-26T06:57:00.069Z,100547.00
2023-04-26T06:59:29.683Z,100551.00
2023-04-26T07:01:57.699Z,100552.00
2023-04-26T07:04:26.116Z,100556.00
2023-04-26T07:06:54.439Z,100548.00
2023-04-26T07:09:23.264Z,100554.00
2023-04-26T07:11:51.365Z,100559.00
2023-04-26T07:14:19.461Z,100559.00
2023-04-26T07:16:47.546Z,100561.00
2023-04-26T07:19:18.165Z,100564.00
2023-04-26T07:21:46.436Z,100562.00
2023-04-26T07:24:14.508Z,100567.00
2023-04-26T07:26:42.712Z,100563.00
2023-04-26T07:29:11.144Z,100568.00
2023-04-26T07:31:42.241Z,100566.00
2023-04-26T07:34:10.719Z,100572.00
2023-04-26T07:36:39.925Z,100569.00
2023-04-26T07:39:10.368Z,100567.00
2023-04-26T07:41:43.746Z,100569.00
2023-04-26T07:44:12.442Z,100564.00
2023-04-26T07:46:40.485Z,100557.00
2023-04-26T07:49:08.563Z,100558.00
2023-04-26T07:51:37.502Z,100561.00
2023-04-26T07:54:05.975Z,100562.00
2023-04-26T07:56:34.109Z,100570.00
2023-04-26T07:59:02.281Z,100565.00
2023-04-26T08:01:30.481Z,100562.00
2023-04-26T08:03:59.356Z,100558.00
2023-04-26T08:06:30.413Z,100555.00
2023-04-26T08:08:59.104Z,100575.00
2023-04-26T08:11:27.368Z,100575.00
2023-04-26T08:13:56.035Z,100567.00
2023-04-26T08:16:24.938Z,100567.00
2023-04-26T08:18:53.862Z,100572.00
2023-04-26T08:21:22.058Z,100580.00
2023-04-26T08:23:50.769Z,100575.00
2023-04-26T08:26:19.951Z,100572.00
2023-04-26T08:28:48.477Z,100577.00
2023-04-26T08:31:17.788Z,100580.00
2023-04-26T08:33:46.106Z,100572.00
2023-04-26T08:36:14.503Z,100575.00
2023-04-26T08:38:42.904Z,100574.00
2023-04-26T08:41:18.357Z,100570.00
2023-04-26T08:43:47.245Z,100568.00
2023-04-26T08:46:17.778Z,100568.00
2023-04-26T08:48:50.228Z,100570.00
2023-04-26T08:51:18.738Z,100571.00
2023-04-26T08:53:47.043Z,100565.00
2023-04-26T08:56:15.777Z,100558.00
2023-04-26T08:58:44.210Z,100567.00
2023-04-26T09:01:15.971Z,100575.00
2023-04-26T09:03:44.592Z,100571.00
2023-04-26T09:06:14.362Z,100562.00
2023-04-26T09:08:43.010Z,100577.00
2023-04-26T09:11:11.117Z,100569.00
2023-04-26T09:13:39.426Z,100576.00
2023-04-26T09:16:07.901Z,100574.00
2023-04-26T09:18:35.982Z,100570.00
2023-04-26T09:21:06.446Z,100576.00
2023-04-26T09:23:34.950Z,100581.00
2023-04-26T09:26:23.081Z,100589.00
2023-04-26T09:28:52.014Z,100577.00
2023-04-26T09:31:50.654Z,100588.00
2023-04-26T09:34:19.300Z,100590.00
2023-04-26T09:36:53.170Z,100593.00
2023-04-26T09:39:33.609Z,100600.00
2023-04-26T09:42:02.424Z,100591.00
2023-04-26T09:44:32.062Z,100593.00
2023-04-26T09:47:05.835Z,100595.00
2023-04-26T09:49:49.600Z,100594.00
2023-04-26T09:52:19.169Z,100587.00
2023-04-26T09:54:52.879Z,100595.00
2023-04-26T09:57:25.361Z,100589.00
2023-04-26T09:59:56.647Z,100598.00
2023-04-26T10:02:27.954Z,100592.00
2023-04-26T10:05:00.473Z,100597.00
2023-04-26T10:07:29.630Z,100594.00
2023-04-26T10:09:59.651Z,100591.00
2023-04-26T10:12:28.870Z,100590.00
2023-04-26T10:14:58.044Z,100580.00
2023-04-26T10:17:26.715Z,100592.00
2023-04-26T10:19:59.041Z,100590.00
2023-04-26T10:22:34.024Z,100588.00
2023-04-26T10:25:02.237Z,100594.00
2023-04-26T10:27:45.798Z,100589.00
2023-04-26T10:30:16.875Z,100586.00
2023-04-26T10:32:57.315Z,100591.00
2023-04-26T10:35:31.903Z,100581.00
2023-04-26T10:38:03.945Z,100576.00
2023-04-26T10:40:42.076Z,100581.00
2023-04-26T10:43:16.074Z,100586.00
2023-04-26T10:45:48.967Z,100591.00
2023-04-26T10:48:31.071Z,100589.00
2023-04-26T10:51:02.841Z,100592.00
2023-04-26T10:53:52.469Z,100593.00
2023-04-26T10:56:28.574Z,100586.00
2023-04-26T10:59:33.483Z,100593.00
2023-04-26T11:02:03.522Z,100594.00
2023-04-26T11:04:54.799Z,100589.00
2023-04-26T11:07:39.469Z,100590.00
2023-04-26T11:10:23.888Z,100581.00
2023-04-26T11:13:01.978Z,100589.00
2023-04-26T11:15:31.773Z,100591.00
2023-04-26T11:18:04.915Z,100590.00
2023-04-26T11:20:36.144Z,100596.00
2023-04-26T11:23:04.563Z,100587.00
2023-04-26T11:25:33.018Z,100587.00
2023-04-26T11:28:04.838Z,100587.00
2023-04-26T11:30:34.174Z,100575.00
2023-04-26T11:33:04.544Z,100579.00
2023-04-26T11:35:40.912Z,100574.00
2023-04-26T11:38:09.159Z,100574.00
2023-04-26T11:40:37.671Z,100574.00
2023-04-26T11:43:07.274Z,100570.00
2023-04-26T11:45:36.950Z,100574.00
2023-04-26T11:48:11.130Z,100582.00
2023-04-26T11:50:40.373Z,100581.00
2023-04-26T11:53:09.215Z,100577.00
2023-04-26T11:55:37.884Z,100580.00
2023-04-26T11:58:14.308Z,100575.00
2023-04-26T12:01:04.807Z,100572.00
2023-04-26T12:03:37.990Z,100571.00
2023-04-26T12:06:06.946Z,100579.00
2023-04-26T12:08:35.111Z,100579.00
2023-04-26T12:11:04.302Z,100589.00
2023-04-26T12:13:33.593Z,100599.00
2023-04-26T12:16:18.575Z,100589.00
2023-04-26T12:18:54.608Z,100588.00
2023-04-26T12:21:23.614Z,100593.00
2023-04-26T12:23:52.183Z,100594.00
2023-04-26T12:26:20.906Z,100599.00
2023-04-26T12:28:49.488Z,100590.00
2023-04-26T12:31:17.595Z,100606.00
2023-04-26T12:33:46.269Z,100593.00
2023-04-26T12:36:14.666Z,100594.00
2023-04-26T12:38:43.127Z,100592.00
2023-04-26T12:41:11.654Z,100598.00
2023-04-26T12:43:39.808Z,100589.00
2023-04-26T12:46:07.830Z,100598.00
2023-04-26T12:48:36.358Z,100594.00
2023-04-26T12:51:05.343Z,100590.00
2023-04-26T12:53:34.044Z,100591.00
2023-04-26T12:56:03.038Z,100591.00
2023-04-26T12:58:31.701Z,100587.00
2023-04-26T13:01:00.319Z,100594.00
2023-04-26T13:03:29.239Z,100586.00
2023-04-26T13:05:58.004Z,100582.00
2023-04-26T13:08:26.469Z,100578.00
2023-04-26T13:10:55.255Z,100579.00
2023-04-26T13:13:32.260Z,100588.00
2023-04-26T13:16:04.591Z,100596.00
2023-04-26T13:18:33.133Z,100594.00
2023-04-26T13:21:04.257Z,100591.00
2023-04-26T13:23:32.740Z,100596.00
2023-04-26T13:26:01.526Z,100588.00
2023-04-26T13:28:32.677Z,100589.00
2023-04-26T13:31:01.332Z,100601.00
2023-04-26T13:33:33.072Z,100596.00
2023-04-26T13:36:01.642Z,100593.00
2023-04-26T13:38:32.743Z,100593.00
2023-04-26T13:41:01.834Z,100597.00
2023-04-26T13:43:30.261Z,100591.00
2023-04-26T13:45:58.741Z,100593.00
2023-04-26T13:48:27.502Z,100599.00
2023-04-26T13:50:59.780Z,100592.00
2023-04-26T13:53:28.325Z,100603.00
2023-04-26T13:55:56.863Z,100608.00
2023-04-26T13:58:25.865Z,100605.00
2023-04-26T14:00:54.288Z,100602.00
2023-04-26T14:03:22.989Z,100601.00
2023-04-26T14:05:51.265Z,100598.00
2023-04-26T14:08:19.713Z,100608.00
2023-04-26T14:10:48.415Z,100600.00
2023-04-26T14:13:16.913Z,100600.00
2023-04-26T14:15:45.111Z,100608.00
2023-04-26T14:18:13.643Z,100607.00
2023-04-26T14:20:42.141Z,100598.00
2023-04-26T14:23:10.966Z,100604.00
2023-04-26T14:25:39.032Z,100601.00
2023-04-26T14:28:08.893Z,100600.00
2023-04-26T14:30:37.207Z,100599.00
2023-04-26T14:33:05.329Z,100603.00
2023-04-26T14:35:34.240Z,100598.00
2023-04-26T14:38:02.517Z,100597.00
2023-04-26T14:40:30.760Z,100600.00
2023-04-26T14:42:59.210Z,100599.00
2023-04-26T14:45:42.887Z,100600.00
2023-04-26T14:48:15.501Z,100598.00
2023-04-26T14:50:43.802Z,100599.00
2023-04-26T14:53:11.922Z,100599.00
2023-04-26T14:55:40.493Z,100601.00
2023-04-26T14:58:08.857Z,100599.00
2023-04-26T15:00:37.465Z,100603.00
2023-04-26T15:03:06.423Z,100597.00
2023-04-26T15:05:35.181Z,100604.00
2023-04-26T15:08:04.344Z,100601.00
2023-04-26T15:10:32.949Z,100604.00
2023-04-26T15:13:01.624Z,100613.00
2023-04-26T15:15:30.187Z,100608.00
2023-04-26T15:17:59.164Z,100606.00
2023-04-26T15:20:27.820Z,100606.00
2023-04-26T15:22:56.504Z,100599.00
2023-04-26T15:25:26.818Z,100605.00
2023-04-26T15:27:55.696Z,100601.00
2023-04-26T15:30:23.967Z,100598.00
2023-04-26T15:32:52.695Z,100592.00
2023-04-26T15:35:25.176Z,100600.00
2023-04-26T15:37:54.264Z,100604.00
2023-04-26T15:40:22.986Z,100600.00
2023-04-26T15:42:52.110Z,100595.00
2023-04-26T15:45:22.005Z,100601.00
2023-04-26T15:47:51.021Z,100595.00
2023-04-26T15:50:19.345Z,100614.00
2023-04-26T15:52:47.838Z,100615.00
2023-04-26T15:55:15.804Z,100607.00
2023-04-26T15:57:43.999Z,100607.00
2023-04-26T16:00:14.880Z,100615.00
2023-04-26T16:02:46.313Z,100618.00
2023-04-26T16:05:14.816Z,100613.00
2023-04-26T16:07:43.245Z,100614.00
2023-04-26T16:10:12.958Z,100615.00
2023-04-26T16:12:42.457Z,100615.00
2023-04-26T16:15:11.588Z,100614.00
2023-04-26T16:17:40.296Z,100613.00
2023-04-26T16:20:10.413Z,100605.00
2023-04-26T16:22:38.699Z,100609.00
2023-04-26T16:25:07.238Z,100607.00
2023-04-26T16:27:37.080Z,100604.00
2023-04-26T16:30:07.159Z,100606.00
2023-04-26T16:32:35.560Z,100610.00
2023-04-26T16:35:04.334Z,100607.00
2023-04-26T16:37:32.535Z,100606.00
2023-04-26T16:40:01.279Z,100610.00
2023-04-26T16:42:31.718Z,100603.00
2023-04-26T16:45:01.086Z,100607.00
2023-04-26T16:47:30.175Z,100603.00
2023-04-26T16:49:58.565Z,100609.00
2023-04-26T16:52:26.942Z,100611.00
2023-04-26T16:54:55.086Z,100611.00
2023-04-26T16:57:24.131Z,100618.00
2023-04-26T16:59:53.011Z,100612.00
2023-04-26T17:02:21.697Z,100616.00
2023-04-26T17:04:51.213Z,100613.00
2023-04-26T17:07:19.630Z,100620.00
2023-04-26T17:09:48.269Z,100622.00
2023-04-26T17:12:16.806Z,100616.00
2023-04-26T17:14:44.960Z,100623.00
2023-04-26T17:17:13.798Z,100619.00
2023-04-26T17:19:42.836Z,100618.00
2023-04-26T17:22:10.817Z,100617.00
2023-04-26T17:24:39.389Z,100612.00
2023-04-26T17:27:16.906Z,100616.00
2023-04-26T17:29:45.471Z,100618.00
2023-04-26T17:32:14.090Z,100623.00
2023-04-26T17:34:42.636Z,100626.00
2023-04-26T17:37:11.099Z,100621.00
2023-04-26T17:39:39.306Z,100630.00
2023-04-26T17:42:07.287Z,100629.00
2023-04-26T17:44:36.165Z,100631.00
2023-04-26T17:47:06.628Z,100635.00
2023-04-26T17:49:36.290Z,100625.00
2023-04-26T17:52:04.688Z,100629.00
2023-04-26T17:54:33.755Z,100633.00
2023-04-26T17:57:04.160Z,100638.00
2023-04-26T17:59:32.512Z,100637.00
2023-04-26T18:02:03.693Z,100643.00
2023-04-26T18:04:34.007Z,100640.00
2023-04-26T18:07:05.295Z,100642.00
2023-04-26T18:09:34.123Z,100645.00
2023-04-26T18:12:02.536Z,100643.00
2023-04-26T18:14:31.341Z,100650.00
2023-04-26T18:17:00.600Z,100641.00
2023-04-26T18:19:29.549Z,100644.00
2023-04-26T18:21:57.999Z,100646.00
2023-04-26T18:24:27.089Z,100647.00
2023-04-26T18:26:55.706Z,100641.00
2023-04-26T18:29:24.064Z,100646.00
2023-04-26T18:31:52.958Z,100644.00
2023-04-26T18:34:21.799Z,100651.00
2023-04-26T18:36:50.876Z,100659.00
2023-04-26T18:39:19.828Z,100659.00
2023-04-26T18:41:48.629Z,100660.00
2023-04-26T18:44:16.841Z,100662.00
2023-04-26T18:46:46.458Z,100666.00
2023-04-26T18:49:14.707Z,100666.00
2023-04-26T18:51:44.096Z,100660.00
2023-04-26T18:54:12.297Z,100666.00
2023-04-26T18:56:43.517Z,100664.00
2023-04-26T18:59:12.861Z,100666.00
2023-04-26T19:01:41.520Z,100665.00
2023-04-26T19:04:11.212Z,100676.00
2023-04-26T19:06:41.994Z,100675.00
2023-04-26T19:09:13.302Z,100680.00
2023-04-26T19:11:41.609Z,100685.00
2023-04-26T19:14:10.098Z,100680.00
2023-04-26T19:16:38.852Z,100689.00
2023-04-26T19:19:07.532Z,100691.00
2023-04-26T19:21:36.572Z,100690.00
2023-04-26T19:24:07.639Z,100695.00
2023-04-26T19:26:37.698Z,100687.00
2023-04-26T19:29:07.004Z,100691.00
2023-04-26T19:31:37.916Z,100694.00
2023-04-26T19:34:06.705Z,100699.00
2023-04-26T19:36:36.767Z,100698.00
2023-04-26T19:39:05.375Z,100703.00
2023-04-26T19:41:33.859Z,100697.00
2023-04-26T19:44:05.332Z,100697.00
2023-04-26T19:46:34.281Z,100699.00
2023-04-26T19:49:03.303Z,100707.00
2023-04-26T19:51:32.461Z,100697.00
2023-04-26T19:54:01.125Z,100691.00
2023-04-26T19:56:29.533Z,100704.00
2023-04-26T19:58:58.103Z,100711.00
2023-04-26T20:01:27.037Z,100704.00
2023-04-26T20:03:55.554Z,100695.00
2023-04-26T20:06:24.339Z,100702.00
2023-04-26T20:08:52.698Z,100698.00
2023-04-26T20:11:20.818Z,100699.00
2023-04-26T20:13:48.735Z,100695.00
2023-04-26T20:16:16.984Z,100701.00
2023-04-26T20:18:45.303Z,100703.00
2023-04-26T20:21:13.320Z,100702.00
2023-04-26T20:23:41.823Z,100704.00
2023-04-26T20:26:12.013Z,100703.00
2023-04-26T20:28:40.260Z,100703.00
2023-04-26T20:31:08.489Z,100708.00
2023-04-26T20:33:37.016Z,100711.00
2023-04-26T20:36:05.702Z,100715.00
2023-04-26T20:38:33.850Z,100710.00
2023-04-26T20:41:02.664Z,100706.00
2023-04-26T20:43:31.758Z,100712.00
2023-04-26T20:46:00.852Z,100708.00
2023-04-26T20:48:29.147Z,100702.00
2023-04-26T20:51:02.235Z,100709.00
2023-04-26T20:53:30.609Z,100714.00
2023-04-26T20:55:59.091Z,100707.00
2023-04-26T20:58:27.903Z,100709.00
2023-04-26T21:00:56.810Z,100706.00
2023-04-26T21:03:25.314Z,100714.00
2023-04-26T21:05:54.359Z,100713.00
2023-04-26T21:08:26.991Z,100720.00
2023-04-26T21:10:55.306Z,100721.00
2023-04-26T21:13:24.163Z,100708.00
2023-04-26T21:15:52.412Z,100714.00
2023-04-26T21:18:20.673Z,100705.00
2023-04-26T21:20:48.645Z,100708.00
2023-04-26T21:23:16.552Z,100717.00
2023-04-26T21:25:50.819Z,100718.00
2023-04-26T21:28:19.328Z,100719.00
2023-04-26T21:30:47.414Z,100717.00
2023-04-26T21:33:16.221Z,100718.00
2023-04-26T21:35:44.364Z,100728.00
2023-04-26T21:38:12.757Z,100717.00
2023-04-26T21:40:40.835Z,100726.00
2023-04-26T21:43:09.220Z,100728.00
2023-04-26T21:45:37.418Z,100733.00
2023-04-26T21:48:06.117Z,100728.00
2023-04-26T21:50:37.144Z,100745.00
2023-04-26T21:53:05.832Z,100737.00
2023-04-26T21:55:34.096Z,100738.00
2023-04-26T21:58:02.803Z,100741.00
2023-04-26T22:00:32.293Z,100730.00
2023-04-26T22:03:01.462Z,100736.00
2023-04-26T22:05:30.108Z,100730.00
2023-04-26T22:07:58.619Z,100745.00
2023-04-26T22:10:27.300Z,100743.00
2023-04-26T22:12:55.338Z,100741.00
2023-04-26T22:15:23.616Z,100741.00
2023-04-26T22:17:52.247Z,100738.00
2023-04-26T22:20:20.204Z,100735.00
2023-04-26T22:22:48.290Z,100741.00
2023-04-26T22:25:16.572Z,100739.00
2023-04-26T22:27:44.853Z,100744.00
2023-04-26T22:30:24.550Z,100736.00
2023-04-26T22:32:55.043Z,100739.00
2023-04-26T22:35:24.217Z,100739.00
2023-04-26T22:37:52.513Z,100741.00
2023-04-26T22:40:20.749Z,100740.00
2023-04-26T22:42:48.880Z,100741.00
2023-04-26T22:45:17.097Z,100749.00
2023-04-26T22:47:45.076Z,100750.00
2023-04-26T22:50:13.205Z,100746.00
2023-04-26T22:52:41.349Z,100746.00
2023-04-26T22:55:09.943Z,100743.00
2023-04-26T22:57:38.102Z,100744.00
2023-04-26T23:00:10.297Z,100747.00
2023-04-26T23:02:38.501Z,100749.00
2023-04-26T23:05:09.885Z,100739.00
2023-04-26T23:07:39.613Z,100746.00
2023-04-26T23:10:08.209Z,100743.00
2023-04-26T23:12:37.075Z,100744.00
2023-04-26T23:15:06.358Z,100744.00
2023-04-26T23:17:34.909Z,100743.00
2023-04-26T23:20:08.503Z,100741.00
2023-04-26T23:22:36.737Z,100748.00
2023-04-26T23:25:05.204Z,100751.00
2023-04-26T23:27:33.215Z,100755.00
2023-04-26T23:30:01.305Z,100743.00
2023-04-26T23:32:29.243Z,100755.00
2023-04-26T23:34:57.357Z,100762.00
2023-04-26T23:37:25.740Z,100763.00
2023-04-26T23:39:53.926Z,100760.00
2023-04-26T23:42:21.799Z,100763.00
2023-04-26T23:44:49.609Z,100758.00
2023-04-26T23:47:17.644Z,100757.00
2023-04-26T23:49:45.837Z,100751.00
2023-04-26T23:52:13.899Z,100751.00
2023-04-26T23:54:44.948Z,100753.00
2023-04-26T23:57:13.133Z,100754.00
2023-04-26T23:59:41.173Z,100754.00
